Terminal Aerodrome Forecast
Issued by NWS Los Angeles, CA

Home | Current Version | Previous Version | Text Only | Print | Product List | Glossary On
Versions: 1 2 3 4 5 6 7 8 9 10 11 12 13 14 15 16 17
405
FTUS46 KLOX 252327
TAFSMX
TAF
KSMX 252327Z 2600/2624 30010KT P6SM SKC
     FM260300 VRB03KT P6SM SKC
     FM261400 12007KT P6SM SKC
     FM262100 28010KT P6SM SKC=

USA.gov is the U.S. government's official web portal to all federal, state and local government web resources and services.